Time;durP1;ratioP1;P1;durP2;ratioP2;P2;SDS_P1;SDS_P2;PMS_P1;PMS_P2;Temp;Humidity;BMP_temperature;BMP_pressure;BME280_temperature;BME280_humidity;BME280_pressure;Samples;Min_cycle;Max_cycle;Signal;HPM_P1;HPM_P2
2023/08/05 00:01:06;;;;;;;0.65;0.60;;;;;;;16.39;78.64;91991.75;4789813;30;20047;-82
2023/08/05 00:03:31;;;;;;;1.70;0.65;;;;;;;16.38;81.32;91993.63;4787894;30;20031;-80
2023/08/05 00:05:57;;;;;;;2.35;0.70;;;;;;;16.34;80.35;91997.25;4772577;29;20062;-82
2023/08/05 00:08:24;;;;;;;0.52;0.50;;;;;;;16.31;79.52;91996.06;4789245;29;20043;-81
2023/08/05 00:10:50;;;;;;;0.57;0.57;;;;;;;16.25;78.71;91994.75;4789081;29;20043;-81
2023/08/05 00:13:16;;;;;;;0.55;0.55;;;;;;;16.22;79.77;91996.19;4773103;30;20500;-82
2023/08/05 00:15:42;;;;;;;0.70;0.60;;;;;;;16.20;81.13;91993.09;4789391;29;20055;-82
2023/08/05 00:18:07;;;;;;;0.65;0.60;;;;;;;16.18;81.53;91990.03;4787934;29;20069;-82
2023/08/05 00:20:33;;;;;;;1.55;0.70;;;;;;;16.15;82.90;91992.56;4789111;29;20076;-82
2023/08/05 00:22:59;;;;;;;3.50;0.70;;;;;;;16.13;82.81;91981.56;4787891;30;20047;-82
2023/08/05 00:25:24;;;;;;;1.48;0.60;;;;;;;16.11;81.58;91979.25;4789427;29;20032;-81
2023/08/05 00:27:50;;;;;;;1.17;0.70;;;;;;;16.10;80.00;91988.28;4789161;29;20110;-81
2023/08/05 00:30:15;;;;;;;2.92;1.20;;;;;;;16.36;82.77;91977.34;4788291;30;20097;-80
2023/08/05 00:32:41;;;;;;;2.33;1.20;;;;;;;16.28;84.26;91966.91;4788332;29;20094;-81
2023/08/05 00:35:07;;;;;;;3.95;0.82;;;;;;;16.20;85.70;91965.94;4788531;29;20039;-82
2023/08/05 00:37:34;;;;;;;2.28;1.20;;;;;;;16.15;86.43;91958.25;4772585;30;20082;-81
2023/08/05 00:40:01;;;;;;;8.35;1.75;;;;;;;16.13;96.07;91955.94;4787917;30;20035;-81
2023/08/05 00:42:27;;;;;;;4.90;1.50;;;;;;;16.16;100.00;91959.78;4791183;29;20047;-82
2023/08/05 00:44:54;;;;;;;4.45;1.40;;;;;;;16.10;100.00;91956.59;4792698;30;20055;-82
2023/08/05 00:47:19;;;;;;;4.07;1.27;;;;;;;16.03;100.00;91951.88;4792576;29;20517;-81
2023/08/05 00:49:47;;;;;;;5.43;1.20;;;;;;;16.00;96.01;91946.50;4792531;30;20521;-81
2023/08/05 00:52:15;;;;;;;1.77;1.10;;;;;;;15.96;94.29;91940.31;4792615;30;20120;-82
2023/08/05 00:54:41;;;;;;;1.98;0.80;;;;;;;15.91;92.98;91938.69;4792853;29;20027;-82
2023/08/05 00:57:13;;;;;;;1.02;0.82;;;;;;;15.83;93.67;91934.31;4790612;29;20043;-82
2023/08/05 00:59:38;;;;;;;1.40;0.90;;;;;;;15.79;95.28;91936.84;4791453;29;20660;-82
2023/08/05 01:02:05;;;;;;;2.33;0.90;;;;;;;15.75;95.90;91925.41;4792206;29;20035;-81
2023/08/05 01:04:32;;;;;;;1.20;0.93;;;;;;;15.74;97.12;91929.16;4776389;30;20046;-82
2023/08/05 01:06:58;;;;;;;2.42;1.10;;;;;;;15.75;96.85;91914.06;4790778;29;20042;-81
2023/08/05 01:09:25;;;;;;;4.30;1.10;;;;;;;15.74;96.28;91917.84;4791813;29;20039;-81
2023/08/05 01:11:50;;;;;;;1.77;0.90;;;;;;;15.76;91.60;91908.47;4791438;29;20082;-81
2023/08/05 01:14:17;;;;;;;1.42;0.90;;;;;;;15.77;89.08;91896.03;4790481;29;20050;-82
2023/08/05 01:16:44;;;;;;;2.17;1.10;;;;;;;15.81;88.62;91907.47;4790496;29;20039;-80
2023/08/05 01:19:23;;;;;;;0.95;0.70;;;;;;;15.75;88.05;91895.59;4790782;30;20466;-81
2023/08/05 01:22:10;;;;;;;2.80;1.00;;;;;;;15.76;88.75;91879.44;4790778;30;20410;-81
2023/08/05 01:24:55;;;;;;;2.25;0.70;;;;;;;15.75;88.71;91864.72;4791753;29;20035;-82
2023/08/05 01:27:22;;;;;;;0.50;0.50;;;;;;;15.79;81.08;91867.47;4791395;29;20055;-81
2023/08/05 01:29:48;;;;;;;1.17;0.70;;;;;;;15.74;80.94;91860.53;4791948;29;20038;-82
2023/08/05 01:32:16;;;;;;;1.90;0.75;;;;;;;15.79;81.75;91862.94;4790819;29;20039;-82
2023/08/05 01:34:43;;;;;;;0.82;0.57;;;;;;;15.78;81.60;91850.06;4790380;30;20400;-81
2023/08/05 01:37:08;;;;;;;2.60;0.80;;;;;;;15.76;81.08;91853.06;4776590;29;20531;-80
2023/08/05 01:39:34;;;;;;;1.00;0.70;;;;;;;15.74;78.21;91844.72;4790037;30;20172;-81
2023/08/05 01:42:00;;;;;;;1.30;0.70;;;;;;;15.72;78.48;91836.34;4774967;30;20051;-81
2023/08/05 01:44:25;;;;;;;0.60;0.60;;;;;;;15.70;78.30;91832.50;4790499;30;20128;-82
2023/08/05 01:46:51;;;;;;;0.55;0.50;;;;;;;15.74;72.38;91825.47;4791495;29;20037;-82
2023/08/05 01:49:16;;;;;;;0.50;0.50;;;;;;;15.74;73.18;91823.59;4791916;30;20664;-81
2023/08/05 01:51:42;;;;;;;0.95;0.50;;;;;;;15.75;73.00;91819.09;4791041;29;20035;-82
2023/08/05 01:54:07;;;;;;;0.43;0.43;;;;;;;15.78;70.68;91808.66;4790659;29;20064;-82
2023/08/05 01:56:33;;;;;;;2.10;0.43;;;;;;;15.78;71.58;91802.56;4790257;29;20051;-82
2023/08/05 01:58:58;;;;;;;0.50;0.50;;;;;;;15.82;71.68;91803.44;4790291;30;20491;-82
2023/08/05 02:01:40;;;;;;;0.80;0.70;;;;;;;15.83;72.19;91799.72;4774831;30;20043;-82
2023/08/05 02:04:06;;;;;;;2.07;0.87;;;;;;;15.86;72.75;91806.97;4800808;29;20047;-81
2023/08/05 02:06:31;;;;;;;1.20;0.80;;;;;;;15.93;72.16;91793.97;4786701;30;20285;-81
2023/08/05 02:08:57;;;;;;;1.38;0.60;;;;;;;15.94;72.30;91797.34;4773252;30;20047;-81
2023/08/05 02:11:22;;;;;;;1.23;0.70;;;;;;;15.96;73.17;91788.03;4773421;30;20048;-82
2023/08/05 02:13:48;;;;;;;0.65;0.65;;;;;;;15.93;74.13;91788.69;4798893;29;20043;-82
2023/08/05 02:16:14;;;;;;;0.68;0.68;;;;;;;15.94;73.56;91778.88;4791365;29;20485;-81
2023/08/05 02:18:39;;;;;;;1.48;0.52;;;;;;;15.90;73.30;91772.75;4774683;30;20044;-81
2023/08/05 02:21:05;;;;;;;1.10;0.65;;;;;;;15.97;72.63;91776.34;4789657;30;20110;-82
2023/08/05 02:23:30;;;;;;;2.35;0.70;;;;;;;15.94;72.08;91773.59;4789723;29;20035;-81
2023/08/05 02:25:56;;;;;;;1.08;0.60;;;;;;;15.97;71.25;91768.44;4789217;29;20043;-81
2023/08/05 02:28:21;;;;;;;0.70;0.70;;;;;;;15.98;71.64;91767.31;4790127;30;20031;-80
2023/08/05 02:30:47;;;;;;;1.05;0.80;;;;;;;15.95;72.00;91775.91;4789609;29;20039;-81
2023/08/05 02:33:12;;;;;;;0.40;0.40;;;;;;;15.91;70.80;91761.84;4790507;29;20041;-80
2023/08/05 02:35:38;;;;;;;0.75;0.60;;;;;;;15.90;70.55;91762.22;4790351;29;20043;-81
2023/08/05 02:38:04;;;;;;;0.57;0.57;;;;;;;15.96;68.10;91771.41;4789829;29;20036;-81
2023/08/05 02:40:33;;;;;;;1.58;0.73;;;;;;;15.92;69.42;91757.34;4773628;30;20043;-80
2023/08/05 02:42:58;;;;;;;1.48;0.68;;;;;;;15.95;69.00;91765.34;4789032;30;20039;-82
2023/08/05 02:45:24;;;;;;;2.22;0.70;;;;;;;15.94;69.33;91755.91;4790281;29;20054;-81
2023/08/05 02:47:49;;;;;;;2.05;0.60;;;;;;;15.94;70.33;91757.78;4789658;29;20051;-82
2023/08/05 02:50:15;;;;;;;0.82;0.70;;;;;;;15.92;71.86;91757.34;4789145;30;20047;-82
2023/08/05 02:52:40;;;;;;;2.28;0.80;;;;;;;16.03;71.37;91751.25;4790465;29;20047;-81
2023/08/05 02:55:06;;;;;;;0.73;0.70;;;;;;;15.97;72.21;91743.91;4789528;29;20094;-82
2023/08/05 02:57:32;;;;;;;1.35;0.80;;;;;;;16.06;71.59;91733.22;4788869;29;20047;-81
2023/08/05 02:59:58;;;;;;;1.20;0.70;;;;;;;15.98;72.27;91732.25;4774005;30;20043;-82
2023/08/05 03:02:23;;;;;;;4.15;0.60;;;;;;;15.90;72.35;91728.66;4789637;30;20031;-80
2023/08/05 03:04:50;;;;;;;1.13;0.82;;;;;;;15.85;71.20;91723.63;4787961;29;20210;-81
2023/08/05 03:07:15;;;;;;;1.00;0.65;;;;;;;15.83;69.78;91725.84;4789839;29;20039;-81
2023/08/05 03:09:41;;;;;;;1.05;0.65;;;;;;;15.86;69.48;91719.88;4789079;29;20038;-81
2023/08/05 03:12:08;;;;;;;1.30;0.70;;;;;;;15.83;70.03;91739.03;4789868;30;20067;-81
2023/08/05 03:14:34;;;;;;;2.38;0.50;;;;;;;15.78;70.66;91733.97;4788314;29;20311;-82
2023/08/05 03:17:03;;;;;;;0.47;0.47;;;;;;;15.73;71.59;91723.66;4787764;29;20039;-81
2023/08/05 03:19:28;;;;;;;0.65;0.50;;;;;;;15.65;73.05;91719.25;4789431;29;20027;-80
2023/08/05 03:21:55;;;;;;;1.15;0.40;;;;;;;15.57;74.31;91723.59;4773637;30;20142;-81
2023/08/05 03:24:21;;;;;;;0.70;0.60;;;;;;;15.54;73.66;91719.00;4788440;30;20138;-81
2023/08/05 03:26:50;;;;;;;0.60;0.60;;;;;;;15.48;71.45;91723.72;4788078;29;20039;-80
2023/08/05 03:29:16;;;;;;;0.60;0.60;;;;;;;15.47;70.80;91711.66;4788245;29;20043;-81
2023/08/05 03:31:42;;;;;;;0.40;0.40;;;;;;;15.49;69.25;91701.53;4788907;30;20050;-81
2023/08/05 03:34:08;;;;;;;0.60;0.60;;;;;;;15.51;68.45;91703.81;4788028;30;20521;-81
2023/08/05 03:36:36;;;;;;;0.60;0.50;;;;;;;15.54;68.71;91714.47;4788444;29;20417;-82
2023/08/05 03:39:03;;;;;;;0.30;0.30;;;;;;;15.73;63.42;91715.75;4788598;30;20061;-81
2023/08/05 03:41:28;;;;;;;0.82;0.47;;;;;;;15.71;64.05;91717.94;4788947;30;20043;-80
2023/08/05 03:43:54;;;;;;;0.40;0.40;;;;;;;15.74;64.64;91722.56;4787788;29;20039;-80
2023/08/05 03:46:20;;;;;;;0.22;0.20;;;;;;;15.67;66.22;91717.84;4788982;29;20066;-80
2023/08/05 03:48:45;;;;;;;0.63;0.47;;;;;;;15.65;66.61;91711.34;4772668;30;20032;-81
2023/08/05 03:51:11;;;;;;;0.40;0.40;;;;;;;15.62;65.71;91718.81;4788574;30;20093;-81
2023/08/05 03:53:37;;;;;;;2.30;0.43;;;;;;;15.70;63.01;91724.31;4788640;30;20062;-81
2023/08/05 03:56:06;;;;;;;0.40;0.40;;;;;;;15.71;62.75;91731.16;4788110;29;20039;-80
2023/08/05 03:58:32;;;;;;;0.52;0.30;;;;;;;15.74;61.57;91733.91;4788160;30;20046;-81
2023/08/05 04:01:00;;;;;;;0.38;0.38;;;;;;;15.85;61.47;91728.91;4788876;30;20047;-82
2023/08/05 04:03:26;;;;;;;0.70;0.40;;;;;;;15.89;60.18;91724.47;4787626;30;20051;-81
2023/08/05 04:05:51;;;;;;;0.40;0.40;;;;;;;15.89;60.43;91724.47;4773043;29;20533;-82
2023/08/05 04:08:18;;;;;;;0.40;0.40;;;;;;;15.95;59.39;91719.72;4788613;30;20130;-81
2023/08/05 04:10:43;;;;;;;0.65;0.35;;;;;;;15.98;59.43;91729.59;4798706;29;20047;-81
2023/08/05 04:13:11;;;;;;;0.40;0.40;;;;;;;15.97;60.21;91723.56;4787779;30;20055;-82
2023/08/05 04:15:38;;;;;;;0.40;0.40;;;;;;;15.98;61.23;91717.16;4803005;29;20468;-80
2023/08/05 04:18:06;;;;;;;0.20;0.20;;;;;;;15.95;58.94;91723.13;4791177;29;20303;-81
2023/08/05 04:20:34;;;;;;;0.40;0.40;;;;;;;16.04;58.96;91730.91;4776084;30;20078;-81
2023/08/05 04:23:00;;;;;;;0.28;0.28;;;;;;;16.12;58.06;91727.34;4776365;30;20470;-82
2023/08/05 04:25:26;;;;;;;0.40;0.40;;;;;;;16.22;59.88;91723.44;4793098;29;20328;-82
2023/08/05 04:27:52;;;;;;;0.40;0.40;;;;;;;16.12;61.11;91729.19;4792794;29;20043;-82
2023/08/05 04:30:17;;;;;;;0.30;0.30;;;;;;;16.05;61.14;91729.03;4792260;30;20043;-81
2023/08/05 04:32:43;;;;;;;3.20;0.60;;;;;;;15.93;62.24;91735.13;4792065;30;20035;-81
2023/08/05 04:35:08;;;;;;;0.35;0.35;;;;;;;15.92;59.69;91750.22;4792929;29;20444;-81
2023/08/05 04:37:34;;;;;;;0.40;0.40;;;;;;;16.05;57.61;91744.88;4792310;29;20039;-82
2023/08/05 04:39:59;;;;;;;0.40;0.40;;;;;;;16.05;61.88;91752.78;4792086;30;20047;-81
2023/08/05 04:42:25;;;;;;;0.60;0.50;;;;;;;15.92;64.10;91752.84;4775310;30;20043;-82
2023/08/05 04:44:51;;;;;;;0.40;0.40;;;;;;;15.82;66.43;91745.41;4807114;29;20042;-81
2023/08/05 04:47:17;;;;;;;1.48;0.40;;;;;;;15.70;67.17;91761.25;4792438;29;20047;-80
2023/08/05 04:49:43;;;;;;;0.40;0.40;;;;;;;15.75;62.35;91766.31;4791827;30;20042;-80
2023/08/05 04:52:10;;;;;;;0.38;0.38;;;;;;;15.77;64.22;91756.97;4791878;29;20030;-81
2023/08/05 04:54:38;;;;;;;0.40;0.40;;;;;;;15.76;64.02;91767.84;4792021;29;20039;-81
2023/08/05 04:57:05;;;;;;;0.43;0.43;;;;;;;15.75;66.83;91766.31;4792050;30;20516;-80
2023/08/05 04:59:30;;;;;;;0.45;0.45;;;;;;;15.74;63.16;91765.56;4792369;29;20042;-80
2023/08/05 05:01:56;;;;;;;0.32;0.32;;;;;;;15.81;61.35;91767.63;4791575;30;20413;-80
2023/08/05 05:04:22;;;;;;;0.43;0.22;;;;;;;15.86;60.53;91772.66;4791726;29;20038;-81
2023/08/05 05:06:47;;;;;;;0.30;0.30;;;;;;;16.01;58.53;91776.47;4791102;29;20125;-80
2023/08/05 05:09:13;;;;;;;0.25;0.25;;;;;;;16.12;59.54;91776.72;4791931;30;20130;-80
2023/08/05 05:11:39;;;;;;;0.50;0.50;;;;;;;16.16;62.82;91770.44;4791526;29;20062;-80
2023/08/05 05:14:06;;;;;;;0.52;0.52;;;;;;;16.21;60.77;91777.34;4791654;29;20471;-81
2023/08/05 05:16:32;;;;;;;0.45;0.40;;;;;;;16.30;61.76;91777.97;4791724;29;20073;-81
2023/08/05 05:18:57;;;;;;;0.40;0.40;;;;;;;16.21;62.13;91779.97;4791962;29;20044;-81
2023/08/05 05:21:23;;;;;;;0.25;0.25;;;;;;;16.17;60.73;91784.41;4792110;29;20039;-83
2023/08/05 05:23:48;;;;;;;1.58;0.30;;;;;;;16.35;59.61;91779.59;4791139;29;20027;-80
2023/08/05 05:26:14;;;;;;;0.63;0.40;;;;;;;16.29;60.63;91776.44;4791377;29;20074;-82
2023/08/05 05:28:39;;;;;;;0.82;0.40;;;;;;;16.32;60.22;91782.91;4791765;29;20498;-82
2023/08/05 05:31:05;;;;;;;3.83;0.43;;;;;;;16.33;61.17;91779.94;4791490;29;20050;-82
2023/08/05 05:33:31;;;;;;;0.40;0.40;;;;;;;16.37;59.57;91775.50;4791893;29;20032;-82
2023/08/05 05:35:56;;;;;;;0.40;0.40;;;;;;;16.53;59.27;91777.41;4790385;29;20073;-82
2023/08/05 05:38:22;;;;;;;0.40;0.40;;;;;;;16.53;59.89;91786.09;4792081;30;20054;-82
2023/08/05 05:40:47;;;;;;;0.50;0.50;;;;;;;16.85;57.21;91788.78;4789406;29;20039;-82
2023/08/05 05:43:13;;;;;;;0.45;0.45;;;;;;;16.88;58.49;91788.09;4790090;30;20051;-81
2023/08/05 05:45:39;;;;;;;0.32;0.32;;;;;;;17.02;59.00;91785.81;4791177;29;20036;-81
2023/08/05 05:48:06;;;;;;;0.30;0.30;;;;;;;17.10;57.60;91781.44;4790226;29;20045;-82
2023/08/05 05:50:31;;;;;;;0.40;0.32;;;;;;;17.27;56.90;91783.72;4791012;30;20054;-80
2023/08/05 05:52:57;;;;;;;0.43;0.43;;;;;;;17.53;56.56;91785.03;4791801;29;20043;-81
2023/08/05 05:55:22;;;;;;;0.88;0.30;;;;;;;17.68;56.50;91786.84;4790812;29;20050;-82
2023/08/05 05:57:48;;;;;;;0.30;0.30;;;;;;;17.72;57.26;91786.16;4791325;29;20031;-82
2023/08/05 06:00:14;;;;;;;1.13;0.75;;;;;;;18.07;53.70;91792.19;4790751;29;20047;-82
2023/08/05 06:02:41;;;;;;;0.88;0.50;;;;;;;18.15;58.71;91782.53;4790374;29;20411;-79
2023/08/05 06:05:07;;;;;;;0.40;0.40;;;;;;;18.27;58.63;91782.34;4790683;29;20506;-81
2023/08/05 06:07:33;;;;;;;0.68;0.30;;;;;;;18.52;54.31;91785.44;4789456;29;20124;-81
2023/08/05 06:09:58;;;;;;;3.03;0.60;;;;;;;19.22;55.95;91788.13;4789869;30;20130;-82
2023/08/05 06:12:30;;;;;;;0.90;0.75;;;;;;;20.24;54.49;91789.09;4789816;29;20059;-81
2023/08/05 06:14:56;;;;;;;0.38;0.38;;;;;;;21.32;51.57;91780.25;4790053;29;20087;-82
2023/08/05 06:17:21;;;;;;;0.80;0.38;;;;;;;22.20;50.81;91781.13;4787969;29;20041;-81
2023/08/05 06:19:47;;;;;;;1.15;0.60;;;;;;;23.00;49.28;91785.56;4789430;30;20043;-83
2023/08/05 06:22:12;;;;;;;0.40;0.40;;;;;;;23.64;42.92;91787.44;4787380;29;20410;-81
2023/08/05 06:24:38;;;;;;;0.30;0.30;;;;;;;24.19;41.61;91794.22;4788501;29;20573;-80
2023/08/05 06:27:04;;;;;;;0.90;0.63;;;;;;;24.50;45.94;91793.34;4787859;29;20096;-81
2023/08/05 06:29:30;;;;;;;0.50;0.50;;;;;;;24.85;42.02;91796.22;4790059;29;20067;-81
2023/08/05 06:31:55;;;;;;;0.40;0.40;;;;;;;25.22;40.35;91797.53;4789474;30;20046;-80
2023/08/05 06:34:22;;;;;;;0.60;0.60;;;;;;;25.58;40.77;91784.63;4789919;30;20050;-81
2023/08/05 06:36:47;;;;;;;0.60;0.60;;;;;;;26.21;38.25;91784.38;4791136;29;20387;-81
2023/08/05 06:39:13;;;;;;;2.70;1.00;;;;;;;26.07;36.88;91789.91;4790924;29;20038;-81
2023/08/05 06:41:38;;;;;;;1.83;0.70;;;;;;;26.06;36.20;91791.06;4790796;29;20039;-82
2023/08/05 06:44:04;;;;;;;1.65;0.60;;;;;;;26.10;36.18;91783.75;4788626;30;20046;-82
2023/08/05 06:46:29;;;;;;;0.50;0.50;;;;;;;26.02;38.22;91782.28;4789691;29;20364;-81
2023/08/05 06:48:55;;;;;;;0.50;0.50;;;;;;;25.77;37.50;91799.38;4790928;29;20059;-82
2023/08/05 06:51:21;;;;;;;1.70;0.65;;;;;;;25.27;39.92;91795.19;4790660;30;20096;-82
2023/08/05 06:53:46;;;;;;;0.38;0.38;;;;;;;25.04;40.08;91793.03;4776050;30;20043;-81
2023/08/05 06:56:12;;;;;;;0.40;0.40;;;;;;;23.76;37.37;91800.44;4789855;29;20434;-79
2023/08/05 06:58:37;;;;;;;0.40;0.40;;;;;;;23.73;44.94;91811.09;4788119;30;20494;-79
2023/08/05 07:01:03;;;;;;;0.43;0.40;;;;;;;24.01;46.78;91804.97;4788884;29;20031;-81
2023/08/05 07:03:29;;;;;;;1.85;1.13;;;;;;;23.79;39.70;91796.22;4786996;29;20058;-77
2023/08/05 07:05:55;;;;;;;0.57;0.52;;;;;;;23.65;43.28;91800.41;4789042;29;20102;-81
2023/08/05 07:08:25;;;;;;;2.25;0.60;;;;;;;23.77;47.24;91801.94;4788805;30;20050;-81
2023/08/05 07:10:58;;;;;;;0.40;0.40;;;;;;;23.78;43.21;91808.84;4788371;29;20051;-80
2023/08/05 07:13:24;;;;;;;2.15;0.50;;;;;;;23.76;42.80;91808.47;4789416;30;20506;-81
2023/08/05 07:15:51;;;;;;;0.30;0.30;;;;;;;23.80;43.27;91811.09;4785879;29;20062;-81
2023/08/05 07:18:16;;;;;;;0.35;0.30;;;;;;;24.18;44.57;91816.75;4789743;30;20447;-81
2023/08/05 07:20:42;;;;;;;2.40;0.47;;;;;;;24.42;43.83;91815.91;4789770;30;20039;-80
2023/08/05 07:23:07;;;;;;;0.50;0.50;;;;;;;24.66;43.80;91811.63;4790040;30;20074;-80
2023/08/05 07:25:33;;;;;;;0.35;0.35;;;;;;;24.43;41.41;91819.31;4788527;30;20043;-81
2023/08/05 07:27:59;;;;;;;0.82;0.40;;;;;;;24.61;42.95;91822.72;4790607;29;20122;-80
2023/08/05 07:30:24;;;;;;;0.45;0.45;;;;;;;24.52;38.37;91822.41;4790775;29;20039;-80
2023/08/05 07:32:50;;;;;;;1.55;0.38;;;;;;;23.96;40.98;91824.84;4790833;29;20039;-81
2023/08/05 07:35:15;;;;;;;0.30;0.30;;;;;;;23.59;39.52;91811.88;4790031;29;20095;-80
2023/08/05 07:37:46;;;;;;;0.50;0.40;;;;;;;23.11;42.36;91814.94;4790287;29;20043;-80
2023/08/05 07:40:12;;;;;;;2.90;0.75;;;;;;;23.31;46.39;91815.34;4788950;30;20039;-81
2023/08/05 07:42:39;;;;;;;0.73;0.50;;;;;;;23.81;43.43;91808.06;4790462;29;20051;-80
2023/08/05 07:45:11;;;;;;;0.43;0.40;;;;;;;23.85;41.79;91808.06;4790239;29;20410;-80
2023/08/05 07:47:41;;;;;;;0.60;0.57;;;;;;;24.17;44.13;91805.28;4789308;29;20047;-80
2023/08/05 07:50:16;;;;;;;2.40;0.50;;;;;;;24.15;40.41;91804.91;4789736;30;20303;-81
2023/08/05 07:52:43;;;;;;;1.38;0.60;;;;;;;23.57;45.53;91803.47;4792843;29;20077;-81
2023/08/05 07:55:08;;;;;;;0.45;0.45;;;;;;;22.95;46.55;91792.03;4793840;30;20039;-80
2023/08/05 07:57:35;;;;;;;0.73;0.68;;;;;;;22.88;50.87;91792.00;4793622;29;20055;-80
2023/08/05 08:00:00;;;;;;;1.10;0.70;;;;;;;22.70;50.44;91791.19;4794110;29;20050;-80
2023/08/05 08:02:26;;;;;;;2.20;1.13;;;;;;;22.83;49.02;91795.81;4792863;29;20051;-79
2023/08/05 08:04:54;;;;;;;1.45;0.60;;;;;;;23.01;49.44;91790.53;4793759;29;20042;-80
2023/08/05 08:07:23;;;;;;;0.40;0.40;;;;;;;22.98;49.02;91791.25;4793715;29;20065;-80
2023/08/05 08:09:49;;;;;;;1.38;0.63;;;;;;;22.94;50.46;91806.50;4793183;29;20039;-80
2023/08/05 08:12:14;;;;;;;0.52;0.43;;;;;;;22.68;48.66;91788.16;4791962;30;20092;-80
2023/08/05 08:14:40;;;;;;;1.27;0.40;;;;;;;23.08;45.07;91792.44;4791885;30;20049;-80
2023/08/05 08:17:06;;;;;;;1.75;0.63;;;;;;;23.36;44.17;91789.00;4790507;29;20039;-80
2023/08/05 08:19:31;;;;;;;0.60;0.60;;;;;;;23.75;48.04;91795.47;4791711;30;20118;-80
2023/08/05 08:21:57;;;;;;;0.90;0.60;;;;;;;23.76;44.55;91799.69;4792405;30;20046;-80
2023/08/05 08:24:22;;;;;;;0.30;0.30;;;;;;;23.67;39.61;91797.38;4792161;30;20501;-80
2023/08/05 08:26:48;;;;;;;0.40;0.40;;;;;;;23.26;39.04;91801.22;4792951;29;20193;-80
2023/08/05 08:29:13;;;;;;;3.13;1.00;;;;;;;23.48;42.68;91801.97;4790467;30;20047;-79
2023/08/05 08:31:39;;;;;;;0.40;0.40;;;;;;;23.56;42.89;91794.72;4791675;29;20077;-80
2023/08/05 08:34:04;;;;;;;2.80;0.50;;;;;;;23.80;42.00;91795.06;4791876;30;20078;-79
2023/08/05 08:36:30;;;;;;;2.60;1.02;;;;;;;24.08;40.92;91804.94;4792423;29;20108;-80
2023/08/05 08:38:55;;;;;;;0.30;0.30;;;;;;;24.21;40.89;91792.69;4790627;30;20122;-81
2023/08/05 08:41:21;;;;;;;1.35;0.70;;;;;;;24.37;39.67;91802.94;4791957;29;20054;-81
2023/08/05 08:43:48;;;;;;;0.40;0.40;;;;;;;24.67;39.46;91810.44;4792085;29;20035;-81
2023/08/05 08:46:14;;;;;;;0.28;0.28;;;;;;;24.55;37.92;91816.25;4791698;29;20048;-80
2023/08/05 08:48:43;;;;;;;0.55;0.40;;;;;;;24.61;39.96;91814.72;4792165;29;20031;-81
2023/08/05 08:51:09;;;;;;;0.30;0.30;;;;;;;24.48;37.21;91816.28;4791327;30;20054;-80
2023/08/05 08:53:35;;;;;;;0.52;0.52;;;;;;;24.57;38.04;91816.63;4792051;29;20514;-80
2023/08/05 08:56:01;;;;;;;0.30;0.30;;;;;;;24.73;40.54;91818.84;4792010;29;20046;-80
2023/08/05 08:58:27;;;;;;;0.38;0.38;;;;;;;24.61;35.77;91813.91;4791707;29;20043;-80
2023/08/05 09:00:53;;;;;;;0.30;0.30;;;;;;;24.40;37.58;91825.47;4791650;29;20082;-80
2023/08/05 09:03:24;;;;;;;1.45;0.40;;;;;;;24.69;40.70;91821.53;4790374;29;20043;-80
2023/08/05 09:05:54;;;;;;;0.73;0.40;;;;;;;24.70;37.94;91836.44;4791884;29;20522;-81
2023/08/05 09:08:20;;;;;;;3.00;0.43;;;;;;;24.12;40.07;91820.97;4791693;29;20043;-80
2023/08/05 09:10:45;;;;;;;0.32;0.28;;;;;;;24.31;41.62;91829.31;4791594;29;20047;-80
2023/08/05 09:13:12;;;;;;;0.32;0.32;;;;;;;24.68;39.21;91829.97;4742079;29;1505374;-80
2023/08/05 09:15:39;;;;;;;0.30;0.30;;;;;;;24.79;36.26;91830.69;4791538;30;20439;-80
2023/08/05 09:18:07;;;;;;;0.50;0.50;;;;;;;24.42;37.60;91825.84;4792645;29;20066;-80
2023/08/05 09:20:35;;;;;;;0.40;0.40;;;;;;;24.67;40.07;91829.19;4791653;30;20047;-80
2023/08/05 09:23:05;;;;;;;0.30;0.30;;;;;;;24.88;36.39;91822.19;4791934;29;20031;-80
2023/08/05 09:25:32;;;;;;;0.20;0.20;;;;;;;24.82;40.00;91829.13;4792229;30;20062;-80
2023/08/05 09:28:00;;;;;;;2.05;0.77;;;;;;;24.59;39.35;91821.56;4792542;29;20039;-80
2023/08/05 09:30:26;;;;;;;0.30;0.30;;;;;;;25.02;36.98;91819.44;4791951;29;20112;-80
2023/08/05 09:32:53;;;;;;;0.68;0.55;;;;;;;25.13;38.21;91822.81;4792494;29;20107;-79
2023/08/05 09:35:19;;;;;;;1.27;0.47;;;;;;;25.20;36.34;91837.34;4792115;29;20042;-80
2023/08/05 09:37:49;;;;;;;3.30;1.40;;;;;;;24.36;36.52;91830.06;4792450;29;20051;-80
2023/08/05 09:40:19;;;;;;;0.40;0.40;;;;;;;24.80;37.20;91820.72;4792553;30;20043;-79
2023/08/05 09:42:49;;;;;;;0.50;0.50;;;;;;;24.51;37.11;91823.53;4791805;29;20571;-80
2023/08/05 09:45:16;;;;;;;1.50;0.90;;;;;;;24.24;38.25;91832.00;4792106;29;20118;-80
2023/08/05 09:47:42;;;;;;;0.82;0.60;;;;;;;24.35;37.41;91836.56;4792831;29;20049;-80
2023/08/05 09:50:15;;;;;;;0.40;0.40;;;;;;;24.60;37.01;91831.91;4791662;29;20035;-79
2023/08/05 09:52:41;;;;;;;0.65;0.57;;;;;;;24.70;37.23;91833.78;4791804;29;20051;-79
2023/08/05 09:55:14;;;;;;;0.85;0.60;;;;;;;24.50;39.10;91830.81;4792064;29;20031;-79
2023/08/05 09:57:43;;;;;;;0.47;0.47;;;;;;;24.50;37.83;91846.84;4792636;29;20123;-80
2023/08/05 10:00:11;;;;;;;1.17;0.60;;;;;;;24.66;37.85;91837.63;4790384;30;20453;-80
2023/08/05 10:02:43;;;;;;;2.05;0.88;;;;;;;24.29;37.33;91826.25;4789891;30;20047;-83
2023/08/05 10:05:10;;;;;;;0.40;0.40;;;;;;;24.03;35.92;91808.03;4790879;29;20118;-79
2023/08/05 10:07:37;;;;;;;2.20;0.60;;;;;;;24.26;38.45;91827.03;4786933;29;20131;-79
2023/08/05 10:10:07;;;;;;;0.30;0.30;;;;;;;24.34;39.13;91825.13;4791281;30;20054;-80
2023/08/05 10:12:47;;;;;;;0.50;0.50;;;;;;;24.51;38.49;91828.88;4790769;30;20108;-83
2023/08/05 10:15:25;;;;;;;1.42;0.77;;;;;;;24.24;38.21;91815.97;4789707;29;20036;-81
2023/08/05 10:17:52;;;;;;;0.60;0.50;;;;;;;24.39;38.41;91822.03;4790393;29;20043;-80
2023/08/05 10:20:18;;;;;;;0.57;0.55;;;;;;;24.35;39.66;91829.31;4776005;29;20035;-79
2023/08/05 10:23:03;;;;;;;0.55;0.45;;;;;;;24.50;35.84;91814.00;4781787;30;20109;-79
2023/08/05 10:25:42;;;;;;;0.85;0.73;;;;;;;24.50;36.64;91817.44;4791352;29;20039;-79
2023/08/05 10:28:09;;;;;;;1.80;1.02;;;;;;;24.25;36.45;91806.81;4791503;29;20043;-80
2023/08/05 10:30:43;;;;;;;1.15;0.90;;;;;;;24.44;38.15;91804.81;4791817;29;20035;-80
2023/08/05 10:33:09;;;;;;;0.40;0.40;;;;;;;24.96;39.70;91812.97;4781834;30;20048;-80
2023/08/05 10:35:41;;;;;;;0.65;0.65;;;;;;;24.81;36.42;91808.84;4784772;29;20073;-79
2023/08/05 10:38:22;;;;;;;0.63;0.50;;;;;;;24.92;36.80;91806.88;4791417;29;20039;-80
2023/08/05 10:40:55;;;;;;;0.93;0.43;;;;;;;25.30;36.70;91799.75;4788337;30;20138;-80
2023/08/05 10:43:30;;;;;;;0.40;0.40;;;;;;;25.62;38.62;91798.72;4797875;29;20567;-80
2023/08/05 10:46:01;;;;;;;0.45;0.45;;;;;;;25.57;33.70;91798.41;4785116;30;20039;-81
2023/08/05 10:48:29;;;;;;;0.50;0.50;;;;;;;25.13;36.69;91793.34;4784347;30;20085;-80
2023/08/05 10:50:55;;;;;;;0.40;0.40;;;;;;;25.00;34.99;91803.00;4782936;29;20039;-79
2023/08/05 10:53:21;;;;;;;0.95;0.50;;;;;;;24.83;35.43;91799.28;4787956;29;20043;-79
2023/08/05 10:55:54;;;;;;;0.30;0.30;;;;;;;24.80;36.50;91807.34;4787599;30;20044;-78
2023/08/05 10:58:34;;;;;;;0.47;0.47;;;;;;;25.09;38.24;91803.31;4788881;29;20115;-78
2023/08/05 11:01:01;;;;;;;0.50;0.50;;;;;;;25.28;37.76;91790.59;4785839;29;20054;-80
2023/08/05 11:03:40;;;;;;;1.95;1.30;;;;;;;25.27;37.61;91794.44;4787074;29;20109;-79
2023/08/05 11:06:06;;;;;;;0.60;0.55;;;;;;;25.67;36.97;91795.63;4789699;29;20089;-79
2023/08/05 11:08:33;;;;;;;0.40;0.40;;;;;;;25.55;36.69;91798.78;4787248;30;20039;-78
2023/08/05 11:11:07;;;;;;;0.40;0.40;;;;;;;25.42;34.68;91785.13;4771389;30;20095;-79
2023/08/05 11:13:38;;;;;;;0.50;0.43;;;;;;;25.03;38.05;91793.44;4784631;29;20120;-79
2023/08/05 11:16:07;;;;;;;0.40;0.40;;;;;;;24.94;36.22;91786.59;4789257;29;20062;-79
2023/08/05 11:18:33;;;;;;;0.50;0.50;;;;;;;24.58;36.03;91795.97;4787179;30;20390;-80
2023/08/05 11:21:01;;;;;;;0.50;0.50;;;;;;;24.29;36.56;91780.78;4787233;29;20410;-78
2023/08/05 11:23:27;;;;;;;0.45;0.32;;;;;;;24.61;38.79;91779.94;4787428;29;20043;-78
2023/08/05 11:25:53;;;;;;;1.95;0.40;;;;;;;25.03;37.75;91780.78;4800931;29;20874;-80
2023/08/05 11:28:19;;;;;;;0.77;0.50;;;;;;;24.83;34.27;91798.53;4789048;29;20115;-79
2023/08/05 11:30:45;;;;;;;0.30;0.30;;;;;;;24.88;36.60;91795.44;4788129;30;20469;-79
2023/08/05 11:33:11;;;;;;;0.57;0.38;;;;;;;24.67;36.23;91785.63;4801917;29;20071;-79